createdAt,value
2019-05-25T00:00:38.139Z,6.57
2019-05-25T00:03:08.789Z,6.73
2019-05-25T00:05:39.165Z,7.67
2019-05-25T00:08:09.591Z,6.47
2019-05-25T00:10:40.160Z,5.03
2019-05-25T00:13:10.637Z,8.07
2019-05-25T00:15:40.997Z,7.53
2019-05-25T00:18:11.880Z,7.97
2019-05-25T00:20:42.147Z,7.43
2019-05-25T00:23:12.576Z,8.00
2019-05-25T00:25:42.880Z,6.73
2019-05-25T00:28:13.583Z,7.53
2019-05-25T00:30:43.913Z,6.77
2019-05-25T00:33:14.284Z,6.60
2019-05-25T00:35:45.628Z,7.83
2019-05-25T00:38:16.291Z,7.77
2019-05-25T00:40:47.652Z,6.90
2019-05-25T00:43:17.976Z,8.47
2019-05-25T00:45:48.271Z,6.50
2019-05-25T00:48:18.577Z,8.00
2019-05-25T00:50:49.268Z,7.03
2019-05-25T00:53:19.556Z,9.00
2019-05-25T00:55:49.926Z,7.90
2019-05-25T00:58:20.308Z,7.30
2019-05-25T01:00:51.006Z,9.40
2019-05-25T01:03:21.295Z,7.67
2019-05-25T01:05:51.609Z,8.37
2019-05-25T01:08:21.958Z,9.70
2019-05-25T01:10:52.269Z,10.57
2019-05-25T01:13:22.861Z,11.63
2019-05-25T01:15:53.171Z,8.73
2019-05-25T01:18:23.440Z,8.67
2019-05-25T01:20:53.725Z,9.80
2019-05-25T01:23:24.097Z,9.27
2019-05-25T01:25:54.391Z,10.00
2019-05-25T01:28:24.716Z,10.30
2019-05-25T01:30:55.282Z,8.27
2019-05-25T01:33:25.685Z,9.13
2019-05-25T01:35:55.988Z,10.47
2019-05-25T01:38:26.330Z,10.23
2019-05-25T01:40:56.632Z,10.97
2019-05-25T01:43:27.260Z,10.30
2019-05-25T01:45:57.591Z,10.40
2019-05-25T01:48:27.868Z,10.70
2019-05-25T01:50:58.207Z,11.67
2019-05-25T01:53:28.490Z,9.63
2019-05-25T01:55:58.840Z,11.40
2019-05-25T01:58:29.328Z,11.53
2019-05-25T02:01:06.827Z,10.87
2019-05-25T02:03:37.771Z,12.40
2019-05-25T02:06:08.256Z,11.30
2019-05-25T02:08:38.604Z,11.70
2019-05-25T02:11:09.147Z,11.63
2019-05-25T02:13:39.471Z,10.50
2019-05-25T02:16:09.816Z,11.77
2019-05-25T02:18:40.161Z,10.43
2019-05-25T02:21:10.483Z,11.10
2019-05-25T02:23:41.077Z,11.07
2019-05-25T02:26:11.360Z,10.80
2019-05-25T02:28:41.832Z,11.17
2019-05-25T02:31:12.111Z,10.20
2019-05-25T02:33:42.431Z,8.83
2019-05-25T02:36:13.083Z,10.40
2019-05-25T02:38:43.433Z,8.77
2019-05-25T02:41:14.799Z,10.53
2019-05-25T02:43:45.890Z,9.80
2019-05-25T02:46:16.169Z,8.63
2019-05-25T02:48:46.456Z,9.67
2019-05-25T02:51:16.743Z,9.07
2019-05-25T02:53:47.340Z,10.63
2019-05-25T02:56:17.698Z,11.30
2019-05-25T02:58:48.012Z,9.73
2019-05-25T03:01:18.282Z,10.40
2019-05-25T03:03:48.684Z,9.80
2019-05-25T03:06:21.267Z,10.60
2019-05-25T03:08:51.710Z,9.20
2019-05-25T03:11:23.320Z,8.80
2019-05-25T03:13:54.083Z,10.20
2019-05-25T03:16:24.362Z,8.97
2019-05-25T03:18:54.760Z,8.70
2019-05-25T03:21:25.176Z,9.03
2019-05-25T03:23:55.628Z,9.90
2019-05-25T03:26:25.905Z,9.70
2019-05-25T03:28:56.184Z,9.80
2019-05-25T03:31:26.503Z,10.00
2019-05-25T03:33:56.874Z,10.07
2019-05-25T03:36:27.622Z,10.70
2019-05-25T03:38:57.921Z,9.10
2019-05-25T03:41:28.207Z,9.33
2019-05-25T03:43:58.521Z,10.90
2019-05-25T03:46:28.941Z,12.33
2019-05-25T03:48:59.576Z,11.97
2019-05-25T03:51:29.893Z,11.00
2019-05-25T03:54:01.152Z,11.70
2019-05-25T03:56:32.068Z,11.80
2019-05-25T03:59:02.354Z,11.93
2019-05-25T04:01:32.673Z,12.17
2019-05-25T04:04:02.949Z,11.97
2019-05-25T04:06:33.993Z,11.60
2019-05-25T04:09:05.446Z,10.87
2019-05-25T04:11:36.244Z,11.10
2019-05-25T04:14:06.629Z,11.10
2019-05-25T04:16:36.950Z,10.57
2019-05-25T04:19:07.389Z,9.97
2019-05-25T04:21:37.900Z,10.73
2019-05-25T04:24:11.161Z,9.90
2019-05-25T04:26:41.464Z,11.43
2019-05-25T04:29:11.993Z,9.97
2019-05-25T04:31:42.545Z,9.60
2019-05-25T04:34:12.872Z,12.67
2019-05-25T04:36:43.184Z,8.37
2019-05-25T04:39:14.539Z,9.40
2019-05-25T04:41:44.835Z,11.10
2019-05-25T04:44:15.578Z,9.90
2019-05-25T04:46:45.930Z,11.10
2019-05-25T04:49:37.122Z,9.90
2019-05-25T04:52:08.973Z,10.57
2019-05-25T04:54:39.733Z,8.60
2019-05-25T04:57:10.269Z,10.07
2019-05-25T04:59:40.608Z,12.07
2019-05-25T05:02:11.144Z,10.17
2019-05-25T05:04:41.511Z,10.07
2019-05-25T05:07:11.861Z,11.20
2019-05-25T05:09:43.166Z,10.77
2019-05-25T05:12:13.628Z,11.30
2019-05-25T05:14:44.014Z,10.37
2019-05-25T05:17:14.469Z,10.60
2019-05-25T05:19:44.763Z,10.60
2019-05-25T05:22:15.611Z,7.77
2019-05-25T05:24:46.051Z,10.40
2019-05-25T05:27:16.344Z,10.70
2019-05-25T05:29:46.642Z,8.40
2019-05-25T05:32:26.989Z,7.90
2019-05-25T05:34:49.964Z,10.27
2019-05-25T05:37:21.124Z,9.30
2019-05-25T05:39:51.437Z,8.40
2019-05-25T05:42:22.603Z,8.77
2019-05-25T05:44:54.361Z,10.07
2019-05-25T05:47:25.622Z,8.93
2019-05-25T05:49:56.091Z,9.53
2019-05-25T05:52:27.835Z,9.83
2019-05-25T05:55:00.015Z,9.13
2019-05-25T05:57:30.381Z,9.33
2019-05-25T06:00:00.772Z,8.60
2019-05-25T06:02:31.631Z,8.60
2019-05-25T06:05:02.973Z,9.70
2019-05-25T06:07:33.620Z,8.43
2019-05-25T06:10:05.072Z,8.87
2019-05-25T06:12:35.448Z,9.27
2019-05-25T06:15:06.452Z,8.07
2019-05-25T06:17:36.831Z,9.53
2019-05-25T06:20:07.499Z,8.67
2019-05-25T06:22:37.849Z,8.87
2019-05-25T06:25:09.029Z,7.47
2019-05-25T06:27:39.409Z,9.07
2019-05-25T06:30:10.473Z,8.33
2019-05-25T06:32:40.758Z,9.07
2019-05-25T06:35:11.159Z,9.23
2019-05-25T06:37:41.418Z,9.47
2019-05-25T06:40:11.821Z,8.53
2019-05-25T06:42:42.588Z,10.13
2019-05-25T06:45:12.997Z,10.27
2019-05-25T06:47:43.273Z,9.00
2019-05-25T06:50:14.648Z,10.67
2019-05-25T06:52:45.144Z,10.93
2019-05-25T06:55:15.556Z,10.73
2019-05-25T06:57:45.926Z,10.50
2019-05-25T07:00:16.341Z,10.60
2019-05-25T07:02:46.980Z,9.63
2019-05-25T07:05:17.285Z,9.50
2019-05-25T07:07:47.617Z,10.47
2019-05-25T07:10:17.911Z,9.87
2019-05-25T07:12:48.260Z,8.63
2019-05-25T07:15:18.568Z,9.07
2019-05-25T07:17:49.040Z,9.60
2019-05-25T07:20:19.425Z,8.43
2019-05-25T07:22:49.702Z,8.47
2019-05-25T07:25:20.535Z,8.60
2019-05-25T07:27:59.495Z,8.60
2019-05-25T07:30:23.281Z,9.13
2019-05-25T07:32:53.649Z,11.53
2019-05-25T07:35:23.988Z,9.80
2019-05-25T07:37:54.614Z,9.53
2019-05-25T07:40:24.896Z,10.13
2019-05-25T07:42:55.222Z,10.10
2019-05-25T07:45:25.553Z,9.40
2019-05-25T07:47:55.976Z,8.37
2019-05-25T07:50:26.531Z,11.70
2019-05-25T07:52:56.878Z,8.93
2019-05-25T07:55:27.127Z,9.53
2019-05-25T07:57:57.432Z,9.43
2019-05-25T08:00:27.776Z,7.70
2019-05-25T08:02:58.567Z,8.40
2019-05-25T08:05:28.866Z,8.70
2019-05-25T08:07:59.306Z,8.87
2019-05-25T08:10:29.689Z,9.20
2019-05-25T08:13:00.226Z,8.13
2019-05-25T08:15:30.606Z,7.20
2019-05-25T08:18:00.893Z,8.77
2019-05-25T08:20:31.178Z,8.43
2019-05-25T08:23:01.560Z,9.30
2019-05-25T08:25:31.842Z,8.90
2019-05-25T08:28:02.460Z,6.70
2019-05-25T08:30:32.945Z,8.60
2019-05-25T08:33:03.400Z,8.90
2019-05-25T08:35:34.049Z,8.50
2019-05-25T08:38:04.364Z,8.17
2019-05-25T08:40:34.634Z,8.37
2019-05-25T08:43:04.975Z,8.40
2019-05-25T08:45:35.346Z,8.47
2019-05-25T08:48:06.631Z,8.10
2019-05-25T08:50:38.714Z,8.30
2019-05-25T08:53:09.305Z,8.07
2019-05-25T08:55:39.710Z,9.20
2019-05-25T08:58:10.640Z,8.80
2019-05-25T09:00:40.925Z,9.70
2019-05-25T09:03:11.225Z,7.73
2019-05-25T09:05:41.623Z,10.40
2019-05-25T09:08:12.025Z,9.70
2019-05-25T09:10:42.684Z,8.13
2019-05-25T09:13:12.936Z,8.83
2019-05-25T09:15:43.221Z,8.07
2019-05-25T09:18:13.479Z,7.70
2019-05-25T09:20:43.926Z,7.83
2019-05-25T09:23:14.198Z,8.07
2019-05-25T09:25:44.859Z,8.07
2019-05-25T09:28:15.195Z,8.93
2019-05-25T09:30:45.497Z,8.73
2019-05-25T09:33:15.885Z,7.57
2019-05-25T09:35:46.420Z,7.20
2019-05-25T09:38:16.741Z,8.20
2019-05-25T09:40:47.190Z,8.73
2019-05-25T09:43:17.578Z,8.40
2019-05-25T09:45:48.984Z,8.20
2019-05-25T09:48:19.878Z,7.00
2019-05-25T09:50:50.191Z,8.10
2019-05-25T09:53:20.462Z,8.50
2019-05-25T09:55:51.024Z,7.03
2019-05-25T09:58:21.313Z,8.57
2019-05-25T10:00:51.610Z,8.93
2019-05-25T10:03:21.888Z,7.47
2019-05-25T10:05:52.163Z,7.40
2019-05-25T10:08:22.453Z,8.03
2019-05-25T10:10:52.904Z,8.60
2019-05-25T10:13:23.281Z,8.27
2019-05-25T10:15:53.661Z,7.80
2019-05-25T10:18:23.941Z,7.80
2019-05-25T10:20:54.246Z,6.80
2019-05-25T10:23:24.528Z,7.77
2019-05-25T10:25:54.810Z,7.10
2019-05-25T10:28:25.132Z,6.10
2019-05-25T10:30:55.764Z,7.60
2019-05-25T10:33:26.024Z,7.70
2019-05-25T10:35:56.300Z,6.43
2019-05-25T10:38:26.573Z,7.00
2019-05-25T10:40:58.600Z,5.90
2019-05-25T10:43:29.036Z,6.80
2019-05-25T10:45:59.436Z,7.17
2019-05-25T10:48:30.043Z,9.90
2019-05-25T10:51:00.410Z,6.37
2019-05-25T10:53:30.707Z,8.33
2019-05-25T10:56:00.980Z,7.10
2019-05-25T10:58:31.866Z,8.13
2019-05-25T11:01:04.193Z,7.23
2019-05-25T11:03:34.510Z,6.50
2019-05-25T11:06:04.791Z,7.27
2019-05-25T11:08:35.195Z,7.27
2019-05-25T11:11:05.846Z,7.83
2019-05-25T11:13:36.239Z,7.17
2019-05-25T11:16:06.547Z,6.10
2019-05-25T11:18:37.010Z,6.20
2019-05-25T11:21:07.377Z,7.40
2019-05-25T11:23:37.764Z,7.63
2019-05-25T11:26:08.142Z,8.30
2019-05-25T11:28:38.438Z,7.77
2019-05-25T11:31:08.704Z,8.47
2019-05-25T11:33:39.014Z,7.23
2019-05-25T11:36:09.784Z,7.70
2019-05-25T11:38:40.162Z,7.63
2019-05-25T11:41:10.421Z,6.60
2019-05-25T11:43:40.732Z,5.90
2019-05-25T11:46:11.241Z,5.10
2019-05-25T11:48:41.587Z,5.27
2019-05-25T11:51:11.866Z,5.70
2019-05-25T12:13:33.168Z,6.33
2019-05-25T12:19:27.270Z,6.13
2019-05-25T12:22:04.829Z,6.17
2019-05-25T12:25:02.358Z,8.43
2019-05-25T12:28:02.354Z,6.43
2019-05-25T12:33:29.790Z,7.10
2019-05-25T12:36:18.297Z,7.30
2019-05-25T12:39:04.285Z,7.20
2019-05-25T12:42:05.052Z,7.10
2019-05-25T12:44:35.685Z,9.07
2019-05-25T12:47:24.150Z,5.93
2019-05-25T12:49:54.435Z,7.43
2019-05-25T12:52:24.857Z,5.60
2019-05-25T12:54:55.132Z,6.47
2019-05-25T12:57:25.421Z,6.97
2019-05-25T12:59:55.774Z,6.80
2019-05-25T13:02:26.197Z,5.60
2019-05-25T13:04:56.681Z,5.60
2019-05-25T13:07:26.998Z,7.60
2019-05-25T13:09:57.285Z,8.10
2019-05-25T13:16:28.297Z,8.20
2019-05-25T13:18:58.625Z,8.43
2019-05-25T13:22:02.224Z,8.47
2019-05-25T13:24:32.532Z,7.53
2019-05-25T13:27:03.153Z,9.93
2019-05-25T13:29:33.555Z,11.37
2019-05-25T13:32:03.927Z,11.83
2019-05-25T13:34:34.720Z,11.43
2019-05-25T13:37:05.139Z,9.47
2019-05-25T13:39:35.672Z,14.70
2019-05-25T13:42:06.503Z,12.73
2019-05-25T13:44:36.893Z,13.53
2019-05-25T13:47:07.253Z,13.10
2019-05-25T13:49:37.780Z,16.50
2019-05-25T13:52:08.069Z,13.00
2019-05-25T13:54:38.459Z,13.37
2019-05-25T13:57:08.753Z,10.40
2019-05-25T13:59:39.199Z,9.00
2019-05-25T14:02:09.754Z,8.30
2019-05-25T14:04:40.084Z,9.90
2019-05-25T14:07:10.472Z,14.17
2019-05-25T14:09:40.845Z,16.30
2019-05-25T14:12:11.898Z,14.73
2019-05-25T14:14:42.195Z,8.33
2019-05-25T14:17:12.538Z,6.73
2019-05-25T14:19:43.068Z,6.57
2019-05-25T14:22:13.366Z,6.50
2019-05-25T14:24:43.741Z,6.37
2019-05-25T14:27:14.417Z,5.70
2019-05-25T14:29:44.913Z,5.63
2019-05-25T14:32:15.408Z,4.80
2019-05-25T14:34:45.828Z,6.93
2019-05-25T14:37:17.593Z,5.23
2019-05-25T14:39:47.884Z,5.00
2019-05-25T14:42:19.267Z,3.97
2019-05-25T14:44:49.915Z,6.07
2019-05-25T14:47:20.180Z,5.40
2019-05-25T14:49:50.484Z,4.57
2019-05-25T14:52:20.761Z,5.30
2019-05-25T14:54:51.046Z,5.03
2019-05-25T14:57:21.328Z,6.20
2019-05-25T14:59:51.628Z,4.50
2019-05-25T15:02:22.237Z,4.13
2019-05-25T15:04:52.550Z,4.20
2019-05-25T15:07:22.935Z,3.77
2019-05-25T15:09:53.363Z,4.27
2019-05-25T15:12:23.985Z,3.47
2019-05-25T15:14:54.444Z,4.07
2019-05-25T15:17:24.714Z,2.93
2019-05-25T15:19:55.147Z,3.10
2019-05-25T15:22:25.819Z,3.20
2019-05-25T15:24:56.125Z,3.07
2019-05-25T15:27:26.429Z,2.90
2019-05-25T15:29:56.733Z,7.80
2019-05-25T15:32:27.063Z,3.23
2019-05-25T15:34:57.761Z,4.50
2019-05-25T15:37:28.065Z,3.80
2019-05-25T15:39:58.351Z,10.90
2019-05-25T15:42:28.684Z,3.80
2019-05-25T15:44:58.988Z,3.50
2019-05-25T15:47:29.382Z,4.30
2019-05-25T15:49:59.900Z,3.63
2019-05-25T15:52:30.255Z,3.70
2019-05-25T15:55:00.542Z,3.27
2019-05-25T15:57:30.853Z,2.80
2019-05-25T16:00:01.124Z,2.80
2019-05-25T16:02:36.609Z,2.80
2019-05-25T16:05:04.641Z,3.37
2019-05-25T16:07:39.069Z,2.73
2019-05-25T16:10:10.269Z,2.90
2019-05-25T16:12:40.565Z,2.50
2019-05-25T16:15:10.884Z,2.90
2019-05-25T16:17:41.355Z,2.80
2019-05-25T16:20:12.105Z,2.83
2019-05-25T16:22:42.554Z,3.40
2019-05-25T16:26:03.595Z,3.93
2019-05-25T16:28:34.078Z,4.03
2019-05-25T16:31:04.433Z,4.13
2019-05-25T16:33:34.721Z,10.13
2019-05-25T16:36:05.305Z,6.67
2019-05-25T16:38:36.054Z,6.03
2019-05-25T16:41:06.308Z,5.20
2019-05-25T16:43:37.033Z,5.33
2019-05-25T16:46:07.534Z,5.00
2019-05-25T16:48:37.817Z,4.20
2019-05-25T16:51:08.113Z,3.70
2019-05-25T16:53:38.400Z,5.53
2019-05-25T16:56:08.689Z,4.50
2019-05-25T16:58:38.972Z,4.17
2019-05-25T17:01:10.318Z,4.93
2019-05-25T17:03:40.861Z,4.93
2019-05-25T17:06:11.151Z,5.93
2019-05-25T17:08:41.456Z,5.30
2019-05-25T17:11:11.810Z,4.47
2019-05-25T17:13:42.070Z,5.20
2019-05-25T17:16:12.447Z,3.83
2019-05-25T17:18:42.734Z,4.20
2019-05-25T17:21:13.224Z,3.30
2019-05-25T17:23:43.503Z,3.17
2019-05-25T17:26:13.810Z,3.87
2019-05-25T17:28:44.238Z,3.53
2019-05-25T17:31:14.585Z,3.37
2019-05-25T17:33:46.493Z,3.57
2019-05-25T17:36:17.329Z,3.00
2019-05-25T17:38:47.621Z,3.83
2019-05-25T17:41:17.926Z,3.20
2019-05-25T17:43:48.304Z,4.10
2019-05-25T17:46:18.804Z,3.03
2019-05-25T17:48:49.271Z,3.20
2019-05-25T17:51:19.635Z,2.77
2019-05-25T17:53:49.970Z,2.27
2019-05-25T17:56:20.397Z,2.17
2019-05-25T17:58:50.761Z,2.80
2019-05-25T18:01:21.342Z,2.73
2019-05-25T18:04:05.556Z,2.80
2019-05-25T18:06:23.934Z,3.00
2019-05-25T18:08:54.433Z,2.53
2019-05-25T18:11:25.209Z,2.87
2019-05-25T18:13:55.662Z,2.40
2019-05-25T18:16:25.983Z,3.40
2019-05-25T18:23:02.806Z,2.77
2019-05-25T18:26:02.840Z,3.80
2019-05-25T18:29:03.524Z,2.83
2019-05-25T18:32:03.723Z,3.83
2019-05-25T18:35:04.176Z,3.50
2019-05-25T18:38:04.278Z,3.90
2019-05-25T18:41:04.936Z,3.70
2019-05-25T18:44:02.210Z,3.60
2019-05-25T18:47:02.329Z,4.30
2019-05-25T18:50:02.797Z,4.23
2019-05-25T18:52:33.127Z,4.40
2019-05-25T18:55:03.689Z,4.47
2019-05-25T18:58:01.324Z,4.83
2019-05-25T19:00:33.241Z,4.67
2019-05-25T19:03:03.820Z,4.53
2019-05-25T19:05:34.331Z,4.17
2019-05-25T19:08:04.810Z,4.60
2019-05-25T19:10:35.203Z,4.00
2019-05-25T19:13:05.645Z,5.23
2019-05-25T19:15:36.139Z,4.60
2019-05-25T19:18:06.618Z,4.37
2019-05-25T19:20:37.020Z,4.83
2019-05-25T19:23:07.527Z,5.00
2019-05-25T19:25:38.331Z,4.90
2019-05-25T19:28:08.742Z,4.33
2019-05-25T19:30:39.196Z,5.20
2019-05-25T19:33:09.732Z,4.47
2019-05-25T19:35:40.161Z,4.60
2019-05-25T19:38:10.583Z,4.40
2019-05-25T19:40:41.272Z,4.57
2019-05-25T19:43:11.736Z,4.30
2019-05-25T19:45:42.067Z,4.93
2019-05-25T19:48:12.426Z,4.73
2019-05-25T19:50:43.072Z,5.50
2019-05-25T19:53:13.679Z,6.10
2019-05-25T19:55:44.492Z,5.77
2019-05-25T19:58:14.913Z,4.37
2019-05-25T20:00:45.309Z,3.97
2019-05-25T20:03:15.649Z,3.53
2019-05-25T20:05:46.289Z,4.47
2019-05-25T20:08:16.564Z,3.93
2019-05-25T20:10:46.868Z,4.80
2019-05-25T20:13:17.237Z,4.70
2019-05-25T20:15:47.623Z,4.37
2019-05-25T20:18:18.405Z,3.77
2019-05-25T20:20:48.722Z,4.20
2019-05-25T20:23:19.987Z,3.87
2019-05-25T20:27:01.985Z,3.30
2019-05-25T20:30:02.209Z,3.70
2019-05-25T20:33:02.374Z,3.80
2019-05-25T20:36:02.330Z,4.50
2019-05-25T20:39:02.749Z,4.30
2019-05-25T20:42:04.095Z,4.30
2019-05-25T20:49:01.482Z,3.97
2019-05-25T21:03:06.506Z,6.10
2019-05-25T21:09:09.039Z,5.40
2019-05-25T21:17:50.231Z,5.93
2019-05-25T21:20:20.968Z,5.73
2019-05-25T21:22:54.287Z,6.47
2019-05-25T21:25:26.701Z,6.60
2019-05-25T21:28:14.987Z,6.50
2019-05-25T21:30:45.290Z,6.40
2019-05-25T21:33:17.666Z,6.40
2019-05-25T21:36:06.456Z,8.07
2019-05-25T21:38:22.789Z,7.20
2019-05-25T21:40:54.362Z,7.33
2019-05-25T21:43:26.454Z,8.47
2019-05-25T21:45:57.878Z,8.43
2019-05-25T21:48:29.956Z,7.57
2019-05-25T21:51:01.506Z,7.77
2019-05-25T21:53:33.456Z,8.93
2019-05-25T21:56:05.828Z,8.60
2019-05-25T21:58:37.678Z,7.70
2019-05-25T22:02:54.244Z,6.83
2019-05-25T22:05:25.894Z,8.60
2019-05-25T22:07:57.058Z,8.03
2019-05-25T22:10:29.120Z,8.93
2019-05-25T22:13:00.621Z,8.40
2019-05-25T22:15:31.368Z,9.30
2019-05-25T22:18:03.339Z,8.20
2019-05-25T22:20:34.834Z,8.83
2019-05-25T22:23:06.447Z,7.97
2019-05-25T22:25:38.525Z,10.17
2019-05-25T22:28:09.953Z,8.90
2019-05-25T22:30:41.986Z,10.07
2019-05-25T22:33:14.044Z,10.43
2019-05-25T22:35:45.580Z,10.23
2019-05-25T22:38:17.508Z,9.50
2019-05-25T22:40:48.792Z,10.23
2019-05-25T22:43:20.237Z,10.00
2019-05-25T22:45:52.123Z,9.80
2019-05-25T22:48:23.748Z,9.50
2019-05-25T22:50:55.623Z,9.73
2019-05-25T22:53:27.715Z,10.00
2019-05-25T22:55:58.353Z,9.77
2019-05-25T22:58:29.014Z,10.27
2019-05-25T23:01:01.205Z,10.03
2019-05-25T23:03:31.942Z,10.17
2019-05-25T23:06:03.687Z,9.97
2019-05-25T23:08:35.567Z,9.60
2019-05-25T23:11:06.973Z,10.90
2019-05-25T23:13:38.415Z,10.30
2019-05-25T23:16:12.661Z,12.00
2019-05-25T23:18:44.551Z,10.90
2019-05-25T23:21:16.692Z,9.87
2019-05-25T23:23:47.708Z,11.40
2019-05-25T23:26:19.051Z,11.63
2019-05-25T23:28:49.792Z,9.77
2019-05-25T23:31:20.660Z,11.10
2019-05-25T23:33:51.371Z,9.30
2019-05-25T23:36:22.219Z,11.70
2019-05-25T23:38:54.594Z,10.50
2019-05-25T23:41:25.116Z,9.50
2019-05-25T23:43:59.665Z,10.90
2019-05-25T23:46:30.292Z,10.20
2019-05-25T23:49:01.111Z,11.27
2019-05-25T23:51:33.112Z,8.83
2019-05-25T23:54:03.984Z,9.10
2019-05-25T23:56:34.826Z,10.07
2019-05-25T23:59:05.617Z,8.47
